Time;durP1;ratioP1;P1;durP2;ratioP2;P2;SDS_P1;SDS_P2;PMS_P1;PMS_P2;Temp;Humidity;BMP_temperature;BMP_pressure;BME280_temperature;BME280_humidity;BME280_pressure;Samples;Min_cycle;Max_cycle;Signal;HPM_P1;HPM_P2
2023/08/09 00:00:17;;;;;;;6.05;4.78;;;21.30;65.60;;;;;;4950186;28;20027;-69
2023/08/09 00:02:45;;;;;;;9.77;4.63;;;21.10;65.00;;;;;;4956283;28;20027;-68
2023/08/09 00:05:12;;;;;;;6.78;4.18;;;21.70;62.40;;;;;;4953186;28;20023;-69
2023/08/09 00:07:39;;;;;;;9.35;4.30;;;21.50;65.40;;;;;;4949504;28;20698;-69
2023/08/09 00:10:07;;;;;;;7.38;3.72;;;21.60;64.00;;;;;;4953209;28;20031;-69
2023/08/09 00:12:34;;;;;;;7.65;4.07;;;22.00;61.70;;;;;;4950559;28;20035;-68
2023/08/09 00:15:02;;;;;;;11.40;3.97;;;21.80;63.20;;;;;;4949146;28;20031;-69
2023/08/09 00:17:30;;;;;;;9.40;4.10;;;21.60;63.80;;;;;;4943451;28;20102;-68
2023/08/09 00:19:57;;;;;;;13.35;3.45;;;22.30;61.60;;;;;;4950666;28;20038;-70
2023/08/09 00:22:24;;;;;;;5.30;3.20;;;22.40;61.60;;;;;;4943207;28;20031;-70
2023/08/09 00:24:52;;;;;;;5.15;3.17;;;22.70;60.00;;;;;;4949184;28;20623;-69
2023/08/09 00:27:19;;;;;;;9.57;3.10;;;22.90;58.70;;;;;;4948608;28;20030;-69
2023/08/09 00:29:47;;;;;;;8.48;2.88;;;22.90;60.70;;;;;;4940430;28;20540;-69
2023/08/09 00:32:14;;;;;;;5.68;2.72;;;22.70;59.20;;;;;;4942320;28;20042;-69
2023/08/09 00:34:42;;;;;;;5.75;2.70;;;22.70;58.30;;;;;;4948625;28;20481;-69
2023/08/09 00:37:09;;;;;;;5.97;2.75;;;22.70;60.10;;;;;;4949997;28;20042;-70
2023/08/09 00:39:36;;;;;;;5.28;1.92;;;23.10;58.20;;;;;;4944267;28;20511;-70
2023/08/09 00:42:04;;;;;;;4.97;1.83;;;23.30;57.90;;;;;;4946040;28;20031;-70
2023/08/09 00:44:31;;;;;;;7.70;1.90;;;23.60;57.10;;;;;;4952985;28;20027;-70
2023/08/09 00:46:59;;;;;;;5.38;2.38;;;23.80;56.90;;;;;;4946154;28;20031;-71
2023/08/09 00:49:27;;;;;;;5.75;2.28;;;23.70;56.60;;;;;;4961477;28;20031;-69
2023/08/09 00:51:54;;;;;;;5.03;1.40;;;23.50;58.10;;;;;;4952376;28;20396;-70
2023/08/09 00:54:23;;;;;;;3.03;1.55;;;23.50;56.50;;;;;;4952281;28;20051;-69
2023/08/09 00:56:51;;;;;;;5.07;1.40;;;23.80;55.90;;;;;;4949306;28;20106;-70
2023/08/09 00:59:18;;;;;;;5.20;1.70;;;24.10;53.80;;;;;;4951233;28;20127;-69
2023/08/09 01:01:45;;;;;;;5.88;1.70;;;23.90;54.90;;;;;;4954640;28;20114;-69
2023/08/09 01:04:13;;;;;;;6.78;1.92;;;24.20;53.50;;;;;;4954546;28;20511;-69
2023/08/09 01:06:57;;;;;;;3.97;1.40;;;23.30;54.40;;;;;;4941692;28;20097;-68
2023/08/09 01:09:49;;;;;;;3.42;1.40;;;22.70;55.70;;;;;;4954046;28;20039;-69
2023/08/09 01:12:21;;;;;;;3.33;1.10;;;23.40;56.10;;;;;;4943576;28;20049;-69
2023/08/09 01:14:54;;;;;;;5.40;1.50;;;24.10;53.60;;;;;;4952489;28;20458;-69
2023/08/09 01:17:22;;;;;;;5.72;1.20;;;24.50;53.00;;;;;;4949587;28;20055;-70
2023/08/09 01:19:55;;;;;;;3.22;1.10;;;24.60;52.70;;;;;;4946985;28;20042;-70
2023/08/09 01:22:29;;;;;;;4.82;1.35;;;24.00;51.30;;;;;;4950536;28;20030;-70
2023/08/09 01:25:06;;;;;;;2.35;1.08;;;24.00;51.80;;;;;;4955422;28;20027;-69
2023/08/09 01:27:35;;;;;;;2.70;1.00;;;23.70;51.80;;;;;;4956375;28;20039;-69
2023/08/09 01:30:10;;;;;;;4.38;1.70;;;23.90;52.60;;;;;;4951369;28;20499;-69
2023/08/09 01:32:38;;;;;;;6.07;1.35;;;24.10;52.00;;;;;;4951934;28;20054;-70
2023/08/09 01:35:07;;;;;;;4.20;1.08;;;23.90;52.20;;;;;;4947165;28;20042;-70
2023/08/09 01:38:05;;;;;;;2.58;0.95;;;23.80;52.40;;;;;;4968624;28;20459;-70
2023/08/09 01:40:33;;;;;;;4.07;0.90;;;23.30;51.20;;;;;;4950787;28;20023;-71
2023/08/09 01:43:01;;;;;;;3.13;1.13;;;23.40;52.90;;;;;;4947550;28;20054;-70
2023/08/09 01:45:29;;;;;;;4.28;1.15;;;23.20;51.90;;;;;;4951939;28;20444;-71
2023/08/09 01:47:56;;;;;;;4.18;1.17;;;23.80;50.60;;;;;;4954123;28;20023;-70
2023/08/09 01:50:28;;;;;;;4.97;1.20;;;24.40;48.20;;;;;;4949467;28;20039;-70
2023/08/09 01:52:55;;;;;;;2.72;1.13;;;24.40;47.90;;;;;;4949471;28;20381;-70
2023/08/09 01:55:25;;;;;;;1.85;0.82;;;24.50;47.40;;;;;;4954574;28;20077;-70
2023/08/09 01:57:53;;;;;;;3.65;1.02;;;23.90;48.00;;;;;;4950795;28;20065;-70
2023/08/09 02:00:24;;;;;;;1.27;0.70;;;24.00;47.30;;;;;;4954460;28;20030;-69
2023/08/09 02:02:52;;;;;;;3.58;1.00;;;24.10;47.70;;;;;;4952708;28;20472;-69
2023/08/09 02:05:20;;;;;;;3.00;1.08;;;23.30;48.50;;;;;;4943322;28;20034;-68
2023/08/09 02:07:50;;;;;;;3.05;1.10;;;23.40;47.90;;;;;;4952850;28;20481;-69
2023/08/09 02:10:18;;;;;;;4.97;1.23;;;23.40;48.10;;;;;;4950744;28;20047;-68
2023/08/09 02:12:49;;;;;;;1.85;0.85;;;23.20;49.10;;;;;;4952585;28;20026;-69
2023/08/09 02:15:17;;;;;;;4.45;1.10;;;23.80;48.50;;;;;;4950477;28;20456;-69
2023/08/09 02:17:46;;;;;;;5.43;0.98;;;24.00;48.20;;;;;;4947442;28;20023;-68
2023/08/09 02:20:13;;;;;;;1.95;0.98;;;23.80;47.80;;;;;;4957365;28;20127;-68
2023/08/09 02:22:41;;;;;;;4.05;1.33;;;23.20;49.70;;;;;;4947502;28;20110;-69
2023/08/09 02:25:10;;;;;;;4.25;1.02;;;23.40;48.10;;;;;;4939171;28;20036;-69
2023/08/09 02:27:39;;;;;;;3.25;1.00;;;22.80;47.80;;;;;;4939999;28;20023;-68
2023/08/09 02:30:08;;;;;;;1.98;1.48;;;23.30;47.30;;;;;;4939846;28;20421;-68
2023/08/09 02:32:36;;;;;;;3.45;1.20;;;23.30;48.00;;;;;;4946018;28;20082;-68
2023/08/09 02:35:05;;;;;;;3.85;1.25;;;23.70;47.80;;;;;;4950861;28;20090;-69
2023/08/09 02:37:34;;;;;;;2.10;0.95;;;23.80;48.40;;;;;;4952041;28;20065;-68
2023/08/09 02:40:01;;;;;;;3.50;1.17;;;23.60;49.10;;;;;;4948811;28;20026;-68
2023/08/09 02:42:29;;;;;;;3.50;1.23;;;23.70;48.30;;;;;;4966166;28;20038;-68
2023/08/09 02:44:56;;;;;;;4.38;1.30;;;23.90;47.90;;;;;;4946795;28;20023;-69
2023/08/09 02:47:23;;;;;;;3.72;1.15;;;23.80;47.80;;;;;;4947141;28;20019;-68
2023/08/09 02:49:51;;;;;;;3.45;1.13;;;23.90;48.20;;;;;;4945689;28;20050;-69
2023/08/09 02:52:18;;;;;;;1.98;1.02;;;23.20;47.60;;;;;;4940055;28;20047;-70
2023/08/09 02:54:47;;;;;;;2.08;1.00;;;23.20;48.90;;;;;;4945823;28;20038;-69
2023/08/09 02:57:15;;;;;;;5.88;1.10;;;23.50;48.60;;;;;;4942574;28;20055;-69
2023/08/09 02:59:42;;;;;;;1.95;1.08;;;23.40;49.30;;;;;;4943150;28;20015;-70
2023/08/09 03:02:09;;;;;;;6.55;1.63;;;23.30;49.30;;;;;;4943603;28;20094;-69
2023/08/09 03:04:37;;;;;;;6.07;1.30;;;23.70;48.80;;;;;;4942610;28;20114;-69
2023/08/09 03:07:04;;;;;;;4.47;1.05;;;24.10;47.40;;;;;;4945710;28;20429;-68
2023/08/09 03:09:32;;;;;;;2.88;1.00;;;24.10;47.50;;;;;;4946642;28;20053;-68
2023/08/09 03:11:59;;;;;;;3.05;1.13;;;24.30;47.50;;;;;;4944311;28;20043;-68
2023/08/09 03:14:27;;;;;;;2.25;1.00;;;24.00;47.50;;;;;;4946820;28;20133;-68
2023/08/09 03:16:54;;;;;;;3.30;1.00;;;23.70;48.70;;;;;;4946396;28;20024;-69
2023/08/09 03:19:21;;;;;;;3.08;1.30;;;24.20;48.30;;;;;;4951632;28;20445;-69
2023/08/09 03:21:49;;;;;;;4.53;1.08;;;24.00;46.70;;;;;;4947888;28;20015;-68
2023/08/09 03:24:19;;;;;;;3.08;1.00;;;23.60;45.40;;;;;;4952125;28;20049;-69
2023/08/09 03:26:46;;;;;;;2.67;0.98;;;23.70;46.80;;;;;;4947598;28;20027;-68
2023/08/09 03:29:14;;;;;;;1.92;0.90;;;24.00;46.20;;;;;;4952708;28;20061;-68
2023/08/09 03:31:41;;;;;;;3.50;1.00;;;23.60;45.90;;;;;;4950026;28;20039;-69
2023/08/09 03:34:09;;;;;;;2.25;1.02;;;23.50;46.80;;;;;;4955364;28;20146;-68
2023/08/09 03:36:36;;;;;;;2.38;1.00;;;23.00;46.10;;;;;;4951228;28;20110;-68
2023/08/09 03:39:03;;;;;;;5.10;1.08;;;23.00;46.90;;;;;;4952320;28;20121;-69
2023/08/09 03:41:31;;;;;;;3.08;1.00;;;23.10;48.30;;;;;;4949888;28;20031;-69
2023/08/09 03:43:58;;;;;;;1.80;1.02;;;23.20;47.80;;;;;;4951712;28;20032;-68
2023/08/09 03:46:26;;;;;;;2.33;0.77;;;23.20;47.50;;;;;;4940510;28;20024;-69
2023/08/09 03:48:54;;;;;;;2.65;0.93;;;23.10;45.90;;;;;;4942793;28;20039;-68
2023/08/09 03:51:21;;;;;;;2.03;0.77;;;22.60;46.50;;;;;;4940479;28;20476;-68
2023/08/09 03:53:48;;;;;;;3.17;1.00;;;22.50;47.30;;;;;;4946100;28;20031;-69
2023/08/09 03:56:16;;;;;;;3.38;1.30;;;22.30;47.70;;;;;;4940158;28;23150;-68
2023/08/09 03:58:43;;;;;;;2.38;0.90;;;22.30;48.70;;;;;;4945400;28;20062;-68
2023/08/09 04:01:11;;;;;;;1.85;1.00;;;22.20;47.70;;;;;;4950339;28;20027;-69
2023/08/09 04:03:39;;;;;;;4.25;0.93;;;22.30;48.20;;;;;;4948555;28;20027;-68
2023/08/09 04:06:07;;;;;;;4.03;1.10;;;22.20;47.90;;;;;;4941367;28;20042;-69
2023/08/09 04:08:34;;;;;;;4.00;1.25;;;22.10;48.00;;;;;;4948201;28;20024;-69
2023/08/09 04:11:04;;;;;;;2.90;0.88;;;21.70;48.50;;;;;;4945316;28;20039;-70
2023/08/09 04:13:31;;;;;;;1.90;0.77;;;21.80;48.60;;;;;;4950869;28;20031;-69
2023/08/09 04:15:59;;;;;;;2.25;1.33;;;22.10;47.70;;;;;;4949774;28;20063;-68
2023/08/09 04:18:26;;;;;;;2.65;0.85;;;22.20;46.60;;;;;;4952150;28;20385;-69
2023/08/09 04:20:54;;;;;;;3.22;1.20;;;21.90;48.00;;;;;;4949706;28;20038;-69
2023/08/09 04:23:21;;;;;;;2.42;0.70;;;21.80;49.20;;;;;;4944075;28;20385;-69
2023/08/09 04:25:49;;;;;;;2.92;1.10;;;21.90;49.10;;;;;;4937536;28;20035;-70
2023/08/09 04:28:16;;;;;;;0.73;0.60;;;22.00;47.80;;;;;;4947397;28;20157;-69
2023/08/09 04:30:43;;;;;;;1.17;0.68;;;21.60;48.40;;;;;;4952549;28;20039;-69
2023/08/09 04:33:10;;;;;;;3.10;1.17;;;21.60;48.50;;;;;;4944085;28;20039;-69
2023/08/09 04:35:38;;;;;;;1.52;0.90;;;21.50;48.30;;;;;;4947643;28;20031;-69
2023/08/09 04:38:05;;;;;;;3.35;0.95;;;21.50;49.20;;;;;;4951789;28;20037;-69
2023/08/09 04:40:36;;;;;;;5.30;0.70;;;21.40;49.10;;;;;;4951939;28;20543;-69
2023/08/09 04:43:04;;;;;;;2.15;1.02;;;21.20;48.60;;;;;;4951605;28;20023;-68
2023/08/09 04:45:32;;;;;;;3.03;1.35;;;21.00;49.70;;;;;;4954741;28;20118;-69
2023/08/09 04:48:01;;;;;;;4.55;0.95;;;21.00;50.00;;;;;;4952161;28;20054;-69
2023/08/09 04:50:29;;;;;;;4.05;0.80;;;21.00;50.10;;;;;;4952951;28;20043;-70
2023/08/09 04:52:57;;;;;;;2.90;0.93;;;21.00;50.10;;;;;;4951098;28;20023;-69
2023/08/09 04:55:24;;;;;;;4.63;0.90;;;21.10;49.90;;;;;;4950708;28;20020;-70
2023/08/09 04:57:52;;;;;;;3.47;0.82;;;21.10;50.00;;;;;;4953511;28;20050;-70
2023/08/09 05:00:19;;;;;;;2.72;1.02;;;21.10;50.50;;;;;;4950614;28;20027;-70
2023/08/09 05:02:47;;;;;;;2.13;0.93;;;21.10;50.90;;;;;;4951646;28;20346;-70
2023/08/09 05:05:14;;;;;;;5.78;0.95;;;21.00;50.60;;;;;;4954801;28;20028;-70
2023/08/09 05:07:41;;;;;;;5.97;1.17;;;20.80;50.40;;;;;;4950905;28;20034;-70
2023/08/09 05:10:11;;;;;;;7.50;1.00;;;20.80;50.20;;;;;;4955769;28;20027;-70
2023/08/09 05:12:38;;;;;;;3.85;0.98;;;20.80;50.70;;;;;;4946680;28;20468;-69
2023/08/09 05:15:06;;;;;;;2.15;0.73;;;20.70;50.60;;;;;;4952782;28;20023;-69
2023/08/09 05:17:33;;;;;;;1.85;0.88;;;20.80;50.60;;;;;;4967320;28;20035;-70
2023/08/09 05:20:01;;;;;;;1.83;0.98;;;20.90;50.10;;;;;;4953671;28;20023;-69
2023/08/09 05:22:28;;;;;;;3.25;1.15;;;20.80;50.10;;;;;;4948318;28;20511;-70
2023/08/09 05:24:55;;;;;;;3.85;1.40;;;20.80;50.70;;;;;;4952461;28;20024;-69
2023/08/09 05:27:23;;;;;;;4.82;1.40;;;20.80;51.10;;;;;;4950607;28;20367;-70
2023/08/09 05:29:50;;;;;;;3.80;1.65;;;20.70;50.90;;;;;;4958297;28;20031;-70
2023/08/09 05:32:17;;;;;;;4.40;2.03;;;20.70;50.80;;;;;;4951496;28;20046;-70
2023/08/09 05:34:45;;;;;;;6.28;2.08;;;20.60;51.00;;;;;;4953855;28;20035;-69
2023/08/09 05:37:12;;;;;;;3.60;1.40;;;20.60;51.80;;;;;;4951034;28;20066;-69
2023/08/09 05:39:40;;;;;;;5.45;1.73;;;20.70;51.30;;;;;;4942595;28;20062;-69
2023/08/09 05:42:07;;;;;;;5.32;1.52;;;20.80;50.50;;;;;;4934023;28;20480;-69
2023/08/09 05:44:34;;;;;;;3.30;1.30;;;20.80;51.00;;;;;;4947910;28;20134;-69
2023/08/09 05:47:02;;;;;;;3.40;1.63;;;20.80;50.30;;;;;;4948135;28;20058;-69
2023/08/09 05:49:30;;;;;;;2.50;1.70;;;20.90;50.90;;;;;;4952406;28;20027;-68
2023/08/09 05:51:57;;;;;;;4.00;1.60;;;20.90;50.00;;;;;;4949466;28;20507;-69
2023/08/09 05:54:25;;;;;;;3.30;1.80;;;20.90;50.10;;;;;;4952565;28;20058;-69
2023/08/09 05:56:53;;;;;;;4.85;1.98;;;20.90;50.20;;;;;;4949307;28;20035;-69
2023/08/09 05:59:20;;;;;;;4.30;1.40;;;20.90;50.70;;;;;;4952113;28;20031;-68
2023/08/09 06:01:49;;;;;;;4.15;1.35;;;20.90;49.70;;;;;;4949373;28;20150;-69
2023/08/09 06:04:17;;;;;;;5.32;1.70;;;20.80;49.70;;;;;;4950983;28;20024;-69
2023/08/09 06:06:45;;;;;;;3.38;1.17;;;20.90;49.80;;;;;;4950728;28;20498;-69
2023/08/09 06:09:13;;;;;;;3.15;1.60;;;21.00;50.20;;;;;;4952365;28;20031;-69
2023/08/09 06:11:40;;;;;;;2.28;1.10;;;21.20;49.70;;;;;;4949278;28;20046;-70
2023/08/09 06:14:08;;;;;;;5.85;1.40;;;21.10;49.80;;;;;;4951164;28;20030;-70
2023/08/09 06:16:36;;;;;;;2.30;1.17;;;21.10;49.30;;;;;;4950278;28;20071;-69
2023/08/09 06:19:03;;;;;;;3.88;1.30;;;21.00;49.80;;;;;;4952432;28;20485;-69
2023/08/09 06:21:30;;;;;;;8.93;1.52;;;20.90;49.70;;;;;;4949319;28;20401;-69
2023/08/09 06:23:58;;;;;;;4.95;1.58;;;21.00;50.10;;;;;;4947995;28;20242;-69
2023/08/09 06:26:25;;;;;;;3.17;1.17;;;21.00;49.30;;;;;;4944452;28;20028;-68
2023/08/09 06:28:52;;;;;;;4.55;1.50;;;20.90;49.20;;;;;;4946810;28;20034;-69
2023/08/09 06:31:21;;;;;;;3.67;1.15;;;20.90;50.50;;;;;;4947906;28;20043;-70
2023/08/09 06:33:49;;;;;;;6.28;1.38;;;20.80;49.60;;;;;;4948383;28;20022;-70
2023/08/09 06:36:16;;;;;;;7.28;1.95;;;20.60;50.00;;;;;;4945754;28;20091;-71
2023/08/09 06:38:43;;;;;;;3.55;1.58;;;20.70;49.90;;;;;;4950847;28;20481;-70
2023/08/09 06:41:10;;;;;;;5.18;1.73;;;20.50;49.70;;;;;;4950372;28;20090;-69
2023/08/09 06:43:39;;;;;;;4.90;1.42;;;20.50;49.70;;;;;;4952666;28;20039;-69
2023/08/09 06:46:06;;;;;;;3.55;1.50;;;20.40;50.10;;;;;;4951076;28;20334;-70
2023/08/09 06:48:35;;;;;;;2.03;1.33;;;20.20;50.80;;;;;;4952804;28;20100;-70
2023/08/09 06:51:02;;;;;;;3.38;1.52;;;20.20;50.80;;;;;;4950363;28;20043;-68
2023/08/09 06:53:29;;;;;;;2.13;1.38;;;20.20;51.20;;;;;;4949472;28;20438;-69
2023/08/09 06:55:56;;;;;;;6.18;1.42;;;20.10;51.50;;;;;;4949638;28;20023;-68
2023/08/09 06:58:24;;;;;;;3.67;1.48;;;20.00;50.70;;;;;;4957319;28;20497;-67
2023/08/09 07:00:53;;;;;;;5.47;1.70;;;19.90;51.50;;;;;;4953052;28;20026;-69
2023/08/09 07:03:20;;;;;;;3.58;1.60;;;19.80;51.80;;;;;;4946969;28;20029;-71
2023/08/09 07:05:47;;;;;;;6.78;1.48;;;19.70;52.70;;;;;;4949355;28;20031;-69
2023/08/09 07:08:15;;;;;;;5.80;1.55;;;19.60;52.40;;;;;;4949191;28;20034;-69
2023/08/09 07:10:43;;;;;;;2.63;1.40;;;19.50;52.70;;;;;;4952243;28;20043;-69
2023/08/09 07:13:10;;;;;;;3.13;1.40;;;19.40;52.40;;;;;;4949287;28;20121;-72
2023/08/09 07:15:37;;;;;;;4.10;1.42;;;19.30;52.60;;;;;;4952982;28;20532;-70
2023/08/09 07:18:05;;;;;;;5.10;1.20;;;19.20;53.10;;;;;;4953115;28;20073;-69
2023/08/09 07:20:32;;;;;;;5.65;1.52;;;19.20;53.00;;;;;;4952885;28;20473;-69
2023/08/09 07:22:59;;;;;;;3.00;1.17;;;19.20;52.90;;;;;;4950200;28;20492;-69
2023/08/09 07:25:27;;;;;;;3.05;1.30;;;19.10;53.20;;;;;;4952066;28;20023;-69
2023/08/09 07:27:54;;;;;;;4.95;1.67;;;18.90;53.70;;;;;;4948411;28;20031;-69
2023/08/09 07:30:21;;;;;;;3.88;1.50;;;18.90;53.90;;;;;;4945840;28;20119;-71
2023/08/09 07:32:49;;;;;;;3.95;1.70;;;18.80;54.30;;;;;;4947380;28;20469;-69
2023/08/09 07:35:17;;;;;;;3.30;1.67;;;18.70;54.30;;;;;;4956585;28;20042;-69
2023/08/09 07:37:46;;;;;;;3.20;1.70;;;18.70;54.60;;;;;;4948170;28;20027;-70
2023/08/09 07:40:14;;;;;;;4.75;1.92;;;18.60;55.10;;;;;;4952465;28;20070;-69
2023/08/09 07:42:43;;;;;;;6.60;1.67;;;18.50;55.30;;;;;;4949564;28;20089;-69
2023/08/09 07:45:11;;;;;;;5.85;1.40;;;18.40;55.60;;;;;;4946835;28;20039;-69
2023/08/09 07:47:39;;;;;;;6.97;1.70;;;18.30;56.00;;;;;;4947760;28;20031;-70
2023/08/09 07:50:07;;;;;;;5.38;1.42;;;18.30;56.80;;;;;;4947536;28;20448;-70
2023/08/09 07:52:35;;;;;;;3.58;2.00;;;18.10;56.50;;;;;;4948279;28;20105;-69
2023/08/09 07:55:05;;;;;;;6.22;1.83;;;18.10;57.00;;;;;;4952283;28;20093;-70
2023/08/09 07:57:33;;;;;;;4.80;1.77;;;18.10;57.50;;;;;;4951862;28;20172;-69
2023/08/09 08:00:05;;;;;;;4.90;1.70;;;18.00;57.70;;;;;;4946765;28;20024;-69
2023/08/09 08:02:32;;;;;;;9.93;2.30;;;17.90;58.50;;;;;;4946907;28;20118;-68
2023/08/09 08:04:59;;;;;;;10.18;2.70;;;17.80;59.40;;;;;;4952107;28;20389;-69
2023/08/09 08:07:27;;;;;;;11.27;2.60;;;17.70;59.60;;;;;;4951669;28;20450;-68
2023/08/09 08:09:54;;;;;;;8.13;2.53;;;17.60;60.20;;;;;;4950663;28;20081;-69
2023/08/09 08:12:22;;;;;;;9.05;2.28;;;17.50;60.20;;;;;;4946698;28;20448;-69
2023/08/09 08:14:49;;;;;;;4.10;2.40;;;17.50;59.90;;;;;;4946810;28;20445;-69
2023/08/09 08:17:17;;;;;;;5.80;2.35;;;17.40;60.70;;;;;;4942077;28;20572;-69
2023/08/09 08:19:44;;;;;;;9.90;2.80;;;17.40;61.20;;;;;;4953213;28;20038;-69
2023/08/09 08:22:12;;;;;;;4.10;2.13;;;17.30;61.90;;;;;;4952627;28;20039;-69
2023/08/09 08:24:39;;;;;;;5.93;2.70;;;17.10;62.40;;;;;;4949196;28;20028;-69
2023/08/09 08:27:06;;;;;;;9.50;2.58;;;16.90;63.10;;;;;;4946457;28;20110;-69
2023/08/09 08:29:34;;;;;;;7.47;2.38;;;16.70;63.30;;;;;;4948580;28;20042;-69
2023/08/09 08:32:01;;;;;;;6.68;2.95;;;16.60;64.40;;;;;;4947544;28;20129;-69
2023/08/09 08:34:32;;;;;;;7.75;2.90;;;16.40;65.00;;;;;;4949833;28;20523;-69
2023/08/09 08:37:00;;;;;;;6.35;2.65;;;16.30;65.90;;;;;;4948811;28;20019;-69
2023/08/09 08:39:29;;;;;;;7.82;2.47;;;16.10;66.20;;;;;;4946263;28;20461;-69
2023/08/09 08:41:57;;;;;;;4.43;2.30;;;16.00;66.40;;;;;;4947030;28;20054;-69
2023/08/09 08:44:25;;;;;;;7.93;2.80;;;15.90;67.00;;;;;;4950294;28;20035;-70
2023/08/09 08:46:53;;;;;;;4.70;2.30;;;15.80;67.60;;;;;;4950177;28;20078;-69
2023/08/09 08:49:24;;;;;;;6.28;2.65;;;15.80;68.30;;;;;;4949015;28;20614;-69
2023/08/09 08:51:55;;;;;;;5.15;2.25;;;15.70;68.70;;;;;;4940735;28;20098;-70
2023/08/09 08:54:24;;;;;;;7.53;2.90;;;15.60;69.00;;;;;;4946217;28;20035;-69
2023/08/09 08:56:51;;;;;;;5.40;2.42;;;15.50;69.80;;;;;;4950336;28;20038;-69
2023/08/09 08:59:19;;;;;;;8.82;2.28;;;15.50;70.30;;;;;;4954807;28;20485;-69
2023/08/09 09:01:47;;;;;;;8.65;2.80;;;15.40;70.40;;;;;;4909489;28;20450;-70
2023/08/09 09:04:15;;;;;;;7.90;3.13;;;15.40;71.00;;;;;;4888130;28;20035;-69
2023/08/09 09:06:43;;;;;;;7.13;3.17;;;15.30;71.20;;;;;;4931760;28;20027;-69
2023/08/09 09:09:15;;;;;;;7.10;3.75;;;15.30;71.30;;;;;;4954948;28;20426;-69
2023/08/09 09:11:45;;;;;;;7.78;3.38;;;15.30;72.00;;;;;;4945734;28;20056;-69
2023/08/09 09:14:13;;;;;;;4.72;3.20;;;15.30;72.30;;;;;;4939780;28;20039;-69
2023/08/09 09:16:43;;;;;;;7.93;3.75;;;15.20;72.80;;;;;;4942304;28;20035;-69
2023/08/09 09:19:10;;;;;;;4.70;3.38;;;15.10;72.60;;;;;;4955137;28;20468;-69
2023/08/09 09:21:38;;;;;;;8.90;3.63;;;15.10;73.70;;;;;;4953379;28;20118;-69
2023/08/09 09:24:07;;;;;;;8.73;3.80;;;15.10;73.90;;;;;;4956305;28;20040;-69
2023/08/09 09:26:37;;;;;;;7.28;4.03;;;15.00;74.10;;;;;;4951173;28;20431;-69
2023/08/09 09:29:08;;;;;;;12.95;3.97;;;14.90;74.20;;;;;;4945676;28;20811;-69
2023/08/09 09:31:39;;;;;;;7.60;3.97;;;14.70;75.10;;;;;;4946600;28;20499;-69
2023/08/09 09:34:09;;;;;;;11.65;4.30;;;14.60;76.20;;;;;;4955809;28;20027;-70
2023/08/09 09:36:40;;;;;;;7.93;4.07;;;14.50;77.10;;;;;;4954217;28;20019;-69
2023/08/09 09:39:11;;;;;;;10.80;3.90;;;14.40;76.60;;;;;;4957661;28;20014;-69
2023/08/09 09:41:45;;;;;;;7.97;3.28;;;14.30;76.50;;;;;;4957052;28;20031;-70
2023/08/09 09:44:17;;;;;;;6.78;3.30;;;14.30;76.50;;;;;;4948154;28;20019;-69
2023/08/09 09:46:45;;;;;;;6.75;3.50;;;14.30;77.20;;;;;;4947362;28;20075;-69
2023/08/09 09:49:14;;;;;;;10.40;3.72;;;14.20;77.90;;;;;;4947806;28;20023;-70
2023/08/09 09:51:43;;;;;;;19.30;3.53;;;14.10;78.20;;;;;;4936626;28;20122;-69
2023/08/09 09:54:11;;;;;;;10.30;3.15;;;14.00;78.70;;;;;;4953575;28;20038;-69
2023/08/09 09:56:38;;;;;;;6.47;3.17;;;14.10;78.80;;;;;;4950566;28;20038;-68
2023/08/09 09:59:07;;;;;;;8.07;3.20;;;14.10;78.90;;;;;;4945627;28;20051;-68
2023/08/09 10:01:41;;;;;;;5.68;3.17;;;14.10;78.20;;;;;;4939925;28;20058;-70
2023/08/09 10:04:12;;;;;;;5.78;2.90;;;14.10;78.60;;;;;;4944937;28;20063;-68
2023/08/09 10:06:44;;;;;;;8.95;3.92;;;14.00;78.40;;;;;;4942523;28;20754;-69
2023/08/09 10:09:13;;;;;;;5.97;3.45;;;14.10;78.20;;;;;;4937078;28;20397;-69
2023/08/09 10:11:44;;;;;;;6.95;4.00;;;14.10;78.20;;;;;;4950814;28;20039;-69
2023/08/09 10:14:14;;;;;;;5.25;3.33;;;14.10;77.60;;;;;;4942382;28;20039;-68
2023/08/09 10:16:42;;;;;;;9.45;3.10;;;14.10;77.80;;;;;;4945563;28;20035;-69
2023/08/09 10:19:15;;;;;;;6.40;2.70;;;14.00;77.40;;;;;;4950045;28;20023;-69
2023/08/09 10:21:42;;;;;;;6.90;3.15;;;14.10;78.20;;;;;;4940329;28;20532;-69
2023/08/09 10:24:12;;;;;;;5.18;2.72;;;14.00;77.70;;;;;;4943932;28;20034;-69
2023/08/09 10:26:41;;;;;;;9.20;3.42;;;14.00;77.60;;;;;;4957506;28;20477;-68
2023/08/09 10:29:21;;;;;;;7.55;3.60;;;14.00;78.00;;;;;;4955766;28;20033;-68
2023/08/09 10:32:04;;;;;;;5.57;3.30;;;13.90;77.90;;;;;;4940351;28;20040;-68
2023/08/09 10:34:41;;;;;;;5.90;3.10;;;13.90;78.60;;;;;;4948198;28;20061;-68
2023/08/09 10:37:11;;;;;;;8.00;2.90;;;13.90;77.50;;;;;;4946107;28;20031;-69
2023/08/09 10:39:39;;;;;;;8.88;2.47;;;14.00;77.10;;;;;;4944489;28;20023;-68
2023/08/09 10:42:14;;;;;;;7.90;2.15;;;14.10;76.40;;;;;;4930964;28;20404;-69
2023/08/09 10:44:49;;;;;;;11.50;2.97;;;14.20;76.10;;;;;;4950496;28;20033;-68
2023/08/09 10:47:36;;;;;;;5.72;2.53;;;14.20;75.90;;;;;;4943358;28;20032;-71
2023/08/09 10:50:08;;;;;;;5.03;2.10;;;14.30;75.70;;;;;;4958240;28;20039;-68
2023/08/09 10:53:00;;;;;;;5.88;2.33;;;14.30;75.50;;;;;;4951523;28;20304;-68
2023/08/09 10:55:30;;;;;;;4.07;1.88;;;14.30;75.40;;;;;;4947257;28;20027;-70
2023/08/09 10:57:59;;;;;;;3.78;1.88;;;14.30;75.10;;;;;;4951784;28;20047;-69
2023/08/09 11:00:28;;;;;;;3.00;1.77;;;14.30;75.20;;;;;;4947948;28;20496;-70
2023/08/09 11:02:58;;;;;;;4.25;1.92;;;14.30;75.10;;;;;;4946565;28;20114;-69
2023/08/09 11:05:27;;;;;;;5.45;2.00;;;14.20;75.50;;;;;;4945600;28;20397;-70
2023/08/09 11:08:00;;;;;;;5.07;1.92;;;14.20;75.50;;;;;;4942924;28;20095;-69
2023/08/09 11:10:35;;;;;;;4.53;1.98;;;14.10;75.90;;;;;;4948036;28;20026;-69
2023/08/09 11:13:18;;;;;;;6.47;2.22;;;14.00;76.40;;;;;;4945611;28;20059;-69
2023/08/09 11:15:48;;;;;;;41.67;10.18;;;13.90;76.70;;;;;;4952112;28;20042;-69
2023/08/09 11:18:16;;;;;;;52.33;12.05;;;14.00;76.40;;;;;;4948357;28;20045;-69
2023/08/09 11:20:44;;;;;;;13.10;4.07;;;14.10;75.60;;;;;;4944775;28;20031;-69
2023/08/09 11:23:13;;;;;;;20.92;6.72;;;13.90;76.20;;;;;;4946951;28;20032;-69
2023/08/09 11:25:40;;;;;;;21.50;8.05;;;13.80;76.70;;;;;;4952815;28;20501;-69
2023/08/09 11:28:12;;;;;;;49.95;17.85;;;13.70;77.70;;;;;;4950131;28;20029;-69
2023/08/09 11:30:40;;;;;;;29.63;11.23;;;13.50;78.20;;;;;;4943259;28;20031;-69
2023/08/09 11:33:09;;;;;;;31.63;11.07;;;13.40;79.10;;;;;;4940706;28;20469;-69
2023/08/09 11:35:44;;;;;;;28.63;9.20;;;13.30;79.30;;;;;;4963316;28;20027;-69
2023/08/09 11:38:15;;;;;;;14.85;4.25;;;13.30;79.70;;;;;;4944651;28;20035;-69
2023/08/09 11:40:51;;;;;;;9.73;3.67;;;13.30;79.50;;;;;;4949864;28;20023;-69
2023/08/09 11:43:20;;;;;;;7.95;3.50;;;13.20;79.80;;;;;;4942121;28;20050;-68
2023/08/09 11:45:55;;;;;;;8.95;3.13;;;13.20;80.00;;;;;;4927857;28;20031;-68
2023/08/09 11:48:29;;;;;;;6.82;3.17;;;13.10;80.40;;;;;;4948855;28;20031;-68
2023/08/09 11:51:04;;;;;;;8.93;4.20;;;12.90;80.90;;;;;;4944426;28;20089;-69
2023/08/09 11:53:33;;;;;;;8.25;4.22;;;12.80;81.30;;;;;;4947344;28;20031;-69
2023/08/09 11:56:07;;;;;;;5.47;3.13;;;12.70;81.90;;;;;;4957931;28;20026;-69
2023/08/09 11:58:36;;;;;;;10.05;3.78;;;12.60;82.30;;;;;;4949822;28;20505;-69
2023/08/09 12:01:37;;;;;;;6.32;2.90;;;12.60;82.60;;;;;;4942767;28;20476;-69
2023/08/09 12:04:09;;;;;;;7.22;2.97;;;12.50;82.80;;;;;;4940644;28;20174;-69
2023/08/09 12:07:05;;;;;;;5.05;2.67;;;12.40;83.50;;;;;;4944786;28;20078;-69
2023/08/09 12:09:39;;;;;;;6.20;2.60;;;12.40;83.80;;;;;;4945582;28;20122;-69
2023/08/09 12:12:11;;;;;;;13.30;2.42;;;12.40;83.70;;;;;;4943895;28;20378;-69
2023/08/09 12:14:40;;;;;;;4.82;2.30;;;12.30;84.00;;;;;;4944615;28;20028;-68
2023/08/09 12:17:08;;;;;;;4.07;2.08;;;12.20;84.00;;;;;;4944155;28;20034;-69
2023/08/09 12:19:36;;;;;;;6.00;2.95;;;12.10;84.30;;;;;;4952345;28;20030;-69
2023/08/09 12:22:04;;;;;;;4.95;2.35;;;12.00;85.30;;;;;;4944120;28;20026;-70
2023/08/09 12:24:32;;;;;;;5.38;2.08;;;12.00;85.50;;;;;;4937494;28;20034;-69
2023/08/09 12:26:59;;;;;;;5.38;2.35;;;11.90;85.70;;;;;;4945358;28;20039;-69
2023/08/09 12:29:27;;;;;;;5.15;2.45;;;11.90;85.90;;;;;;4950657;28;20057;-69
2023/08/09 12:31:54;;;;;;;3.35;2.17;;;11.90;85.90;;;;;;4943834;28;20039;-69
2023/08/09 12:34:21;;;;;;;5.75;2.60;;;11.90;86.10;;;;;;4941171;28;20026;-69
2023/08/09 12:36:49;;;;;;;4.07;2.08;;;11.80;86.40;;;;;;4944969;28;20036;-69
2023/08/09 12:39:16;;;;;;;6.13;3.00;;;11.70;86.80;;;;;;4936421;28;20039;-69
2023/08/09 12:41:44;;;;;;;5.50;2.90;;;11.60;87.40;;;;;;4935223;28;20139;-69
2023/08/09 12:44:12;;;;;;;8.23;2.40;;;11.60;87.50;;;;;;4941479;28;20028;-69
2023/08/09 12:46:40;;;;;;;4.55;2.88;;;11.50;87.70;;;;;;4935829;28;20027;-69
2023/08/09 12:49:08;;;;;;;8.30;2.95;;;11.50;88.40;;;;;;4951483;28;20380;-69
2023/08/09 12:51:37;;;;;;;7.35;3.60;;;11.50;88.00;;;;;;4954473;28;20460;-70
2023/08/09 12:54:05;;;;;;;5.20;2.70;;;11.40;88.30;;;;;;4946350;28;20038;-69